Time;durP1;ratioP1;P1;durP2;ratioP2;P2;SDS_P1;SDS_P2;PMS_P1;PMS_P2;Temp;Humidity;BMP_temperature;BMP_pressure;BME280_temperature;BME280_humidity;BME280_pressure;Samples;Min_cycle;Max_cycle;Signal;HPM_P1;HPM_P2
2022/06/21 00:01:14;;;;;;;2.60;2.17;;;12.20;18.80;;;;;;5107029;27;34070;-78
2022/06/21 00:03:41;;;;;;;2.85;2.40;;;12.20;18.90;;;;;;5123903;27;34809;-78
2022/06/21 00:06:07;;;;;;;3.92;2.72;;;12.10;18.80;;;;;;5124108;27;34363;-78
2022/06/21 00:08:36;;;;;;;3.35;2.60;;;12.10;18.80;;;;;;5123067;27;36647;-78
2022/06/21 00:11:04;;;;;;;2.83;2.55;;;12.10;18.90;;;;;;5106587;27;34313;-77
2022/06/21 00:13:33;;;;;;;3.60;2.40;;;12.00;18.70;;;;;;5124540;27;34229;-78
2022/06/21 00:16:02;;;;;;;2.63;2.40;;;12.00;18.90;;;;;;5107219;27;34275;-78
2022/06/21 00:18:31;;;;;;;3.38;2.53;;;12.00;18.90;;;;;;5123674;27;36011;-79
2022/06/21 00:20:57;;;;;;;3.63;2.50;;;12.00;18.90;;;;;;5124046;27;34137;-78
2022/06/21 00:23:29;;;;;;;2.60;2.40;;;11.90;18.80;;;;;;5124004;27;34193;-78
2022/06/21 00:25:56;;;;;;;3.08;2.88;;;11.90;19.10;;;;;;5125415;27;34351;-79
2022/06/21 00:28:22;;;;;;;2.78;2.45;;;11.80;18.80;;;;;;5123632;27;35926;-77
2022/06/21 00:30:50;;;;;;;3.75;2.72;;;11.80;18.80;;;;;;5119081;27;34124;-78
2022/06/21 00:33:23;;;;;;;2.53;2.33;;;11.80;18.80;;;;;;5125133;27;34335;-78
2022/06/21 00:35:52;;;;;;;2.80;2.60;;;11.80;18.90;;;;;;5125208;27;34074;-79
2022/06/21 00:38:25;;;;;;;3.53;2.67;;;11.70;18.80;;;;;;5123470;27;35789;-78
2022/06/21 00:40:51;;;;;;;5.32;2.40;;;11.70;19.10;;;;;;5124556;27;34069;-77
2022/06/21 00:43:22;;;;;;;3.28;2.58;;;11.70;19.00;;;;;;5106311;27;34177;-78
2022/06/21 00:45:50;;;;;;;3.15;2.30;;;11.60;19.00;;;;;;5106534;27;34242;-77
2022/06/21 00:48:37;;;;;;;3.63;2.35;;;11.60;19.00;;;;;;5106578;27;35848;-78
2022/06/21 00:51:25;;;;;;;2.47;2.28;;;11.60;20.70;;;;;;5123477;27;34208;-78
2022/06/21 00:53:57;;;;;;;3.40;2.47;;;11.50;20.40;;;;;;5123227;27;34210;-78
2022/06/21 00:56:28;;;;;;;3.20;2.83;;;11.50;19.10;;;;;;5106709;27;34492;-78
2022/06/21 00:58:54;;;;;;;5.78;2.90;;;11.40;19.00;;;;;;5089510;27;35663;-77
2022/06/21 01:01:26;;;;;;;2.80;2.60;;;11.40;19.00;;;;;;5124619;27;34101;-77
2022/06/21 01:04:04;;;;;;;4.35;2.70;;;11.30;19.20;;;;;;5122991;27;34170;-78
2022/06/21 01:06:34;;;;;;;3.10;2.80;;;11.30;19.70;;;;;;5123210;27;34581;-77
2022/06/21 01:09:07;;;;;;;7.00;2.95;;;11.30;19.20;;;;;;5105981;27;36849;-77
2022/06/21 01:11:41;;;;;;;2.70;2.42;;;11.20;19.10;;;;;;5122788;27;34379;-78
2022/06/21 01:14:08;;;;;;;3.92;2.80;;;11.20;19.20;;;;;;5124684;27;34066;-78
2022/06/21 01:16:37;;;;;;;5.03;3.00;;;11.20;19.10;;;;;;5123372;27;34555;-77
2022/06/21 01:19:12;;;;;;;4.53;2.72;;;11.20;19.20;;;;;;5123368;27;35829;-77
2022/06/21 01:21:42;;;;;;;3.03;2.83;;;11.10;19.50;;;;;;5126461;27;34225;-78
2022/06/21 01:24:21;;;;;;;2.85;2.60;;;11.10;19.30;;;;;;5126532;27;34085;-78
2022/06/21 01:26:56;;;;;;;6.57;2.97;;;11.20;20.20;;;;;;5110595;27;34226;-78
2022/06/21 01:29:27;;;;;;;4.72;2.88;;;11.20;19.70;;;;;;5109937;27;36679;-77
2022/06/21 01:31:56;;;;;;;3.42;3.13;;;11.20;19.60;;;;;;5092031;27;34380;-79
2022/06/21 01:34:24;;;;;;;3.30;3.05;;;11.20;19.60;;;;;;5127020;27;34143;-78
2022/06/21 01:37:02;;;;;;;6.22;2.72;;;11.30;19.70;;;;;;5126718;27;34523;-78
2022/06/21 01:39:46;;;;;;;3.90;3.08;;;11.30;20.20;;;;;;5126319;27;35935;-78
2022/06/21 01:42:26;;;;;;;5.53;3.33;;;11.30;20.00;;;;;;5113963;27;34011;-78
2022/06/21 01:44:55;;;;;;;3.28;2.97;;;11.40;20.80;;;;;;5105911;28;34201;-78
2022/06/21 01:47:27;;;;;;;3.35;3.03;;;11.40;19.80;;;;;;5107070;27;34494;-78
2022/06/21 01:50:03;;;;;;;7.60;3.20;;;11.40;20.00;;;;;;5125833;27;35518;-78
2022/06/21 01:52:34;;;;;;;6.45;3.45;;;11.50;20.50;;;;;;5127998;27;34380;-78
2022/06/21 01:55:06;;;;;;;6.50;3.00;;;11.50;19.70;;;;;;5109229;27;34175;-77
2022/06/21 01:57:32;;;;;;;4.30;3.28;;;11.50;19.70;;;;;;5127490;27;34171;-77
2022/06/21 02:00:03;;;;;;;2.92;2.72;;;11.50;19.50;;;;;;5125310;27;35604;-77
2022/06/21 02:02:34;;;;;;;5.20;2.90;;;11.40;19.40;;;;;;5128261;27;34132;-78
2022/06/21 02:28:30;;;;;;;3.30;2.45;;;10.90;20.00;;;;;;6135914;22;33716;-77
2022/06/21 02:30:58;;;;;;;3.05;2.35;;;10.90;21.60;;;;;;5021091;28;36055;-78
2022/06/21 02:33:28;;;;;;;2.92;2.63;;;10.80;19.70;;;;;;5023816;28;35789;-77
2022/06/21 02:35:59;;;;;;;7.18;2.65;;;10.70;19.80;;;;;;5025230;28;34233;-77
2022/06/21 02:38:32;;;;;;;5.20;2.80;;;10.70;20.00;;;;;;5024210;28;34192;-77
2022/06/21 02:41:11;;;;;;;6.07;2.60;;;10.70;20.00;;;;;;5006919;28;34098;-77
2022/06/21 02:43:41;;;;;;;5.85;2.60;;;10.70;20.50;;;;;;5023361;28;36085;-77
2022/06/21 02:46:11;;;;;;;4.57;2.63;;;10.70;20.00;;;;;;5024940;28;34169;-77
2022/06/21 02:48:56;;;;;;;4.15;2.60;;;10.60;19.80;;;;;;5023909;28;34314;-77
2022/06/21 02:51:28;;;;;;;3.95;2.60;;;10.60;21.10;;;;;;5023968;28;34414;-78
2022/06/21 02:54:12;;;;;;;2.42;2.22;;;10.50;20.00;;;;;;5023802;28;36587;-78
2022/06/21 02:56:45;;;;;;;3.13;2.50;;;10.50;20.20;;;;;;5024692;28;34575;-78
2022/06/21 02:59:12;;;;;;;7.38;2.83;;;10.50;20.00;;;;;;5023882;28;34181;-77
2022/06/21 03:01:53;;;;;;;11.32;2.92;;;10.50;19.90;;;;;;5023732;28;34178;-77
2022/06/21 03:04:23;;;;;;;2.70;2.50;;;10.40;20.80;;;;;;5023950;28;36720;-78
2022/06/21 03:06:50;;;;;;;2.60;2.40;;;10.40;20.00;;;;;;5023705;28;34419;-77
2022/06/21 03:09:19;;;;;;;4.07;2.50;;;10.40;19.90;;;;;;5024938;28;34132;-78
2022/06/21 03:11:47;;;;;;;3.85;2.85;;;10.40;19.90;;;;;;5007601;28;34134;-77
2022/06/21 03:14:17;;;;;;;5.20;3.00;;;10.40;19.90;;;;;;5023264;28;35639;-78
2022/06/21 03:16:45;;;;;;;4.45;2.70;;;10.40;20.00;;;;;;5006589;28;34229;-78
2022/06/21 03:19:27;;;;;;;2.70;2.45;;;10.40;20.00;;;;;;5024625;28;34253;-78
2022/06/21 03:21:54;;;;;;;2.95;2.67;;;10.40;20.20;;;;;;5008094;28;34590;-78
2022/06/21 03:24:24;;;;;;;4.35;2.85;;;10.40;20.00;;;;;;5023207;28;36086;-77
2022/06/21 03:27:00;;;;;;;5.57;3.00;;;10.40;20.00;;;;;;5006777;28;34388;-77
2022/06/21 03:29:28;;;;;;;2.75;2.53;;;10.40;20.30;;;;;;5024133;28;34134;-77
2022/06/21 03:31:54;;;;;;;4.82;2.85;;;10.40;20.00;;;;;;5024030;28;34078;-77
2022/06/21 03:34:25;;;;;;;3.03;2.50;;;10.40;20.00;;;;;;5022914;28;35906;-77
2022/06/21 03:36:51;;;;;;;4.82;2.53;;;10.30;20.00;;;;;;5022917;28;34494;-77
2022/06/21 03:41:42;;;;;;;3.10;2.80;;;10.30;20.00;;;;;;5023138;28;34386;-78
2022/06/21 03:42:09;;;;;;;3.33;2.42;;;10.40;20.80;;;;;;5022282;28;34521;-77
2022/06/21 03:44:42;;;;;;;2.97;2.40;;;10.40;20.00;;;;;;5022875;28;35963;-77
2022/06/21 03:47:35;;;;;;;2.47;2.28;;;10.30;20.20;;;;;;5022816;28;34160;-77
2022/06/21 03:50:19;;;;;;;4.35;2.42;;;10.30;21.20;;;;;;5023079;28;34304;-77
2022/06/21 03:52:55;;;;;;;4.72;3.15;;;10.30;21.60;;;;;;5023055;28;34120;-77
2022/06/21 03:55:36;;;;;;;3.10;2.80;;;10.30;20.20;;;;;;5006880;28;36806;-77
2022/06/21 03:58:21;;;;;;;5.90;2.75;;;10.40;20.80;;;;;;5023724;28;34176;-76
2022/06/21 04:01:02;;;;;;;3.25;2.47;;;10.40;20.80;;;;;;5022321;28;34085;-77
2022/06/21 04:03:43;;;;;;;2.58;2.38;;;10.40;20.00;;;;;;5006379;28;34220;-77
2022/06/21 04:06:18;;;;;;;2.90;2.70;;;10.40;20.00;;;;;;5023253;28;34458;-77
2022/06/21 04:08:55;;;;;;;5.03;2.70;;;10.40;20.20;;;;;;5006288;28;34387;-77
2022/06/21 04:11:30;;;;;;;2.70;2.50;;;10.40;20.00;;;;;;5007485;28;34184;-76
2022/06/21 04:14:06;;;;;;;3.67;2.80;;;10.50;20.20;;;;;;5006867;28;34486;-77
2022/06/21 04:16:38;;;;;;;5.38;2.72;;;10.50;20.30;;;;;;5022323;28;35803;-76
2022/06/21 04:19:23;;;;;;;4.22;2.80;;;10.50;20.10;;;;;;5022210;28;34271;-76
2022/06/21 04:21:59;;;;;;;3.08;2.70;;;10.50;20.00;;;;;;5023603;28;34203;-77
2022/06/21 04:24:35;;;;;;;3.38;2.80;;;10.60;20.20;;;;;;5022884;28;34414;-77
2022/06/21 04:27:15;;;;;;;5.63;2.97;;;10.50;20.10;;;;;;5022155;28;36702;-77
2022/06/21 04:30:05;;;;;;;4.82;3.05;;;10.60;20.40;;;;;;5023120;28;34044;-77
2022/06/21 04:32:40;;;;;;;3.80;2.92;;;10.60;21.20;;;;;;5022746;28;34256;-77
2022/06/21 04:35:17;;;;;;;3.15;2.63;;;10.60;20.30;;;;;;5022548;28;34485;-77
2022/06/21 04:37:57;;;;;;;4.70;2.83;;;10.70;20.00;;;;;;5021252;28;35824;-77
2022/06/21 04:40:33;;;;;;;3.70;2.63;;;10.70;20.90;;;;;;5022333;28;34273;-77
2022/06/21 04:43:25;;;;;;;3.50;3.00;;;10.80;20.30;;;;;;5023602;28;34138;-77
2022/06/21 04:45:58;;;;;;;3.17;2.88;;;10.80;20.30;;;;;;5000929;28;34195;-77
2022/06/21 04:48:47;;;;;;;4.90;3.15;;;10.90;20.10;;;;;;5001540;28;34342;-77
2022/06/21 04:51:31;;;;;;;4.50;3.03;;;11.00;20.40;;;;;;5001882;28;34254;-77
2022/06/21 04:54:06;;;;;;;3.53;3.22;;;11.10;20.70;;;;;;4970589;28;34185;-77
2022/06/21 04:56:50;;;;;;;4.05;3.67;;;11.10;20.50;;;;;;4988570;28;34186;-77
2022/06/21 04:59:29;;;;;;;5.95;3.20;;;11.20;20.20;;;;;;4990191;28;36506;-77
2022/06/21 05:01:56;;;;;;;4.30;3.50;;;11.30;20.40;;;;;;4959440;28;34352;-77
2022/06/21 05:04:27;;;;;;;4.82;3.15;;;11.40;19.70;;;;;;5001048;28;34117;-78
2022/06/21 05:06:56;;;;;;;3.70;3.20;;;11.40;19.90;;;;;;4985454;28;34290;-78
2022/06/21 05:09:25;;;;;;;3.95;3.35;;;11.50;19.80;;;;;;4985402;28;36056;-78
2022/06/21 05:12:00;;;;;;;6.07;3.55;;;11.70;19.80;;;;;;5000086;28;34185;-77
2022/06/21 05:14:33;;;;;;;4.93;3.47;;;11.80;19.90;;;;;;4972267;28;34171;-77
2022/06/21 05:16:59;;;;;;;5.05;3.42;;;11.90;19.60;;;;;;4999333;28;34249;-78
2022/06/21 05:19:30;;;;;;;6.97;4.10;;;12.10;19.60;;;;;;5025175;28;36773;-78
2022/06/21 05:22:07;;;;;;;5.75;3.95;;;12.40;19.60;;;;;;5024965;28;34313;-77
2022/06/21 05:24:34;;;;;;;4.38;3.97;;;12.90;19.70;;;;;;5025542;28;34268;-78
2022/06/21 05:27:19;;;;;;;5.43;3.65;;;13.50;18.30;;;;;;5026010;28;34514;-78
2022/06/21 05:29:54;;;;;;;4.80;3.28;;;14.30;18.20;;;;;;5008391;28;36057;-78
2022/06/21 05:32:28;;;;;;;5.20;3.58;;;15.00;16.90;;;;;;5026713;28;34334;-78
2022/06/21 05:34:59;;;;;;;4.28;3.05;;;15.70;16.00;;;;;;5025066;28;34335;-78
2022/06/21 05:37:36;;;;;;;3.53;2.55;;;16.50;15.20;;;;;;5026404;28;34505;-78
2022/06/21 05:40:15;;;;;;;7.45;2.78;;;17.20;14.10;;;;;;5025237;28;35520;-79
2022/06/21 05:42:41;;;;;;;2.83;2.55;;;17.70;13.40;;;;;;5025749;28;34026;-79
2022/06/21 05:45:12;;;;;;;4.72;2.58;;;18.20;12.70;;;;;;5026808;28;33995;-80
2022/06/21 05:47:46;;;;;;;3.15;2.75;;;18.80;12.80;;;;;;5026396;28;34519;-79
2022/06/21 05:50:18;;;;;;;4.30;2.00;;;19.30;10.70;;;;;;4990329;28;35672;-78
2022/06/21 05:52:52;;;;;;;2.80;2.40;;;19.60;10.20;;;;;;4994963;28;34165;-78
2022/06/21 05:55:25;;;;;;;3.00;2.28;;;20.10;8.30;;;;;;5026803;28;34396;-78
2022/06/21 05:57:58;;;;;;;4.57;1.88;;;20.20;8.70;;;;;;5009247;28;34057;-78
2022/06/21 06:00:36;;;;;;;4.68;2.35;;;20.10;9.00;;;;;;5025496;28;35394;-78
2022/06/21 06:03:11;;;;;;;3.00;2.10;;;20.00;9.00;;;;;;5024596;28;34239;-78
2022/06/21 06:05:38;;;;;;;2.28;2.08;;;19.90;9.60;;;;;;5025764;28;34375;-78
2022/06/21 06:08:14;;;;;;;2.67;1.98;;;19.90;10.40;;;;;;5024884;28;34148;-79
2022/06/21 06:10:43;;;;;;;3.65;2.22;;;20.00;9.80;;;;;;5025710;28;35792;-78
2022/06/21 06:13:17;;;;;;;3.45;2.15;;;20.20;10.10;;;;;;5025424;28;34233;-78
2022/06/21 06:15:50;;;;;;;2.35;2.15;;;20.50;9.90;;;;;;5008934;28;34326;-80
2022/06/21 06:18:21;;;;;;;3.35;2.20;;;20.80;9.50;;;;;;5009626;28;34592;-79
2022/06/21 06:21:06;;;;;;;2.85;2.33;;;21.20;9.00;;;;;;5025375;28;35944;-79
2022/06/21 06:23:43;;;;;;;3.25;2.00;;;21.80;7.30;;;;;;5025022;28;34193;-78
2022/06/21 06:26:15;;;;;;;2.10;1.90;;;21.80;5.80;;;;;;5007267;28;34351;-80
2022/06/21 06:28:49;;;;;;;5.97;2.00;;;21.80;7.80;;;;;;5021157;28;34090;-79
2022/06/21 06:31:35;;;;;;;3.10;2.08;;;21.60;8.30;;;;;;5025917;28;35808;-79
2022/06/21 06:34:08;;;;;;;3.63;2.20;;;21.50;8.40;;;;;;4997876;28;34217;-78
2022/06/21 06:36:39;;;;;;;3.42;1.90;;;21.30;8.70;;;;;;4994008;28;34243;-79
2022/06/21 06:39:17;;;;;;;4.22;2.03;;;21.20;9.30;;;;;;5025436;28;34161;-79
2022/06/21 06:41:53;;;;;;;4.70;2.10;;;21.30;8.60;;;;;;5010573;28;36592;-78
2022/06/21 06:44:21;;;;;;;6.13;2.60;;;21.40;8.60;;;;;;5005684;28;34227;-79
2022/06/21 06:46:51;;;;;;;3.33;2.17;;;21.50;8.70;;;;;;5025438;28;34196;-79
2022/06/21 06:49:36;;;;;;;3.72;2.13;;;21.40;8.40;;;;;;5028945;28;34324;-79
2022/06/21 06:52:16;;;;;;;4.68;1.92;;;21.30;8.70;;;;;;5024944;28;35794;-79
2022/06/21 06:54:58;;;;;;;1.95;1.85;;;21.10;8.30;;;;;;5008198;28;34008;-79
2022/06/21 06:57:39;;;;;;;2.83;2.10;;;21.00;8.60;;;;;;5020952;28;34436;-80
2022/06/21 07:00:23;;;;;;;2.92;2.00;;;21.30;8.80;;;;;;5025372;28;34589;-80
2022/06/21 07:02:56;;;;;;;3.95;2.20;;;21.60;7.10;;;;;;5005684;28;36576;-79
2022/06/21 07:05:33;;;;;;;2.60;1.65;;;21.90;8.30;;;;;;5019403;28;34165;-78
2022/06/21 07:08:16;;;;;;;3.38;1.77;;;22.20;6.80;;;;;;5006523;28;34495;-79
2022/06/21 07:10:45;;;;;;;3.80;1.83;;;22.60;6.70;;;;;;4994624;28;35822;-78
2022/06/21 07:13:11;;;;;;;5.43;2.00;;;23.10;7.10;;;;;;5025722;28;36106;-79
2022/06/21 07:15:41;;;;;;;4.18;1.95;;;23.40;6.90;;;;;;5016208;28;34141;-81
2022/06/21 07:18:15;;;;;;;5.70;2.70;;;23.30;5.70;;;;;;5020465;28;34145;-76
2022/06/21 07:20:44;;;;;;;4.05;2.30;;;22.90;3.80;;;;;;5024160;28;34105;-78
2022/06/21 07:23:14;;;;;;;4.82;2.20;;;22.50;6.60;;;;;;5007182;28;35796;-78
2022/06/21 07:25:46;;;;;;;12.57;2.40;;;22.20;7.00;;;;;;5024726;28;34188;-80
2022/06/21 07:28:31;;;;;;;3.08;2.00;;;22.00;7.10;;;;;;5018512;28;34346;-78
2022/06/21 07:31:03;;;;;;;3.08;1.95;;;21.90;5.90;;;;;;5007850;28;34406;-79
2022/06/21 07:33:36;;;;;;;3.53;2.35;;;21.70;7.90;;;;;;5006070;28;34418;-79
2022/06/21 07:36:08;;;;;;;4.13;2.35;;;21.90;7.50;;;;;;5024448;28;34082;-79
2022/06/21 07:38:47;;;;;;;4.07;2.45;;;22.10;7.00;;;;;;5023712;28;34258;-80
2022/06/21 07:41:33;;;;;;;6.28;2.38;;;22.20;6.60;;;;;;5023036;28;34370;-78
2022/06/21 07:44:07;;;;;;;3.05;2.20;;;22.20;6.80;;;;;;5005884;28;35956;-78
2022/06/21 07:46:41;;;;;;;4.82;2.08;;;22.20;7.30;;;;;;5023357;28;34120;-78
2022/06/21 07:49:25;;;;;;;2.35;1.83;;;22.30;6.90;;;;;;5019294;28;34178;-78
2022/06/21 07:51:58;;;;;;;3.13;2.03;;;22.30;6.20;;;;;;5023569;28;34078;-78
2022/06/21 07:54:30;;;;;;;5.32;2.35;;;22.40;6.80;;;;;;5007563;28;35958;-77
2022/06/21 07:57:04;;;;;;;5.47;2.05;;;22.60;6.00;;;;;;5038442;28;34286;-78
2022/06/21 07:59:38;;;;;;;2.60;2.20;;;22.90;6.00;;;;;;5019497;28;34161;-79
2022/06/21 08:08:01;;;;;;;6.22;2.13;;;24.20;2.90;;;;;;5004935;28;34135;-78
2022/06/21 08:10:41;;;;;;;4.63;2.40;;;24.40;4.80;;;;;;5004228;28;34107;-78
2022/06/21 08:13:07;;;;;;;4.13;2.35;;;24.60;3.40;;;;;;5003512;28;34129;-78
2022/06/21 08:15:41;;;;;;;4.30;2.72;;;24.70;4.70;;;;;;5004407;28;34161;-79
2022/06/21 08:18:19;;;;;;;6.53;2.17;;;25.00;2.70;;;;;;4988702;28;34218;-79
2022/06/21 08:20:57;;;;;;;5.75;2.38;;;25.10;3.10;;;;;;4992875;28;34059;-79
2022/06/21 08:23:43;;;;;;;3.88;2.30;;;24.90;3.30;;;;;;5006272;28;34031;-79
2022/06/21 08:26:28;;;;;;;2.88;2.13;;;24.70;1.00;;;;;;5022987;28;35711;-80
2022/06/21 08:29:10;;;;;;;3.85;2.58;;;24.40;2.00;;;;;;5005354;28;34423;-79
2022/06/21 08:31:40;;;;;;;3.03;2.10;;;24.10;1.60;;;;;;5006445;28;34114;-78
2022/06/21 08:34:20;;;;;;;3.50;2.00;;;23.90;4.80;;;;;;5022373;28;34169;-78
2022/06/21 08:36:55;;;;;;;3.10;2.35;;;23.70;3.10;;;;;;5021943;28;36038;-77
2022/06/21 08:39:34;;;;;;;6.50;2.55;;;23.50;4.20;;;;;;5006760;28;34160;-78
2022/06/21 08:42:22;;;;;;;5.63;2.42;;;23.30;4.50;;;;;;5022021;28;34390;-77
2022/06/21 08:48:39;;;;;;;4.32;2.40;;;22.90;1.70;;;;;;5022435;28;34223;-78
2022/06/21 08:51:40;;;;;;;3.05;2.33;;;22.90;3.30;;;;;;5022499;28;34205;-79
2022/06/21 08:54:43;;;;;;;5.22;2.72;;;23.20;2.00;;;;;;5022446;28;34237;-78
2022/06/21 08:57:23;;;;;;;3.60;2.20;;;23.40;3.90;;;;;;5006802;28;34249;-77
2022/06/21 09:00:14;;;;;;;2.65;2.20;;;23.90;5.10;;;;;;5023481;28;35683;-79
2022/06/21 09:03:04;;;;;;;4.10;2.40;;;24.20;2.60;;;;;;5022893;28;34383;-78
2022/06/21 09:05:50;;;;;;;3.53;2.40;;;24.50;2.80;;;;;;5023077;28;34467;-79
2022/06/21 09:08:43;;;;;;;4.18;2.33;;;24.80;3.80;;;;;;5024989;28;34605;-79
2022/06/21 09:11:40;;;;;;;4.15;2.42;;;24.90;1.00;;;;;;5022596;28;35805;-78
2022/06/21 09:14:35;;;;;;;3.17;2.10;;;24.90;1.00;;;;;;5003063;28;34719;-78
2022/06/21 09:17:29;;;;;;;3.70;2.90;;;24.90;1.00;;;;;;4986782;28;34278;-78
2022/06/21 09:20:19;;;;;;;4.82;2.70;;;24.80;1.30;;;;;;5023798;28;34105;-79
2022/06/21 09:23:08;;;;;;;2.42;2.10;;;24.60;1.00;;;;;;5021601;28;35525;-77
2022/06/21 09:25:54;;;;;;;5.47;2.63;;;24.40;1.20;;;;;;5018599;28;34081;-78
2022/06/21 09:28:29;;;;;;;4.03;2.50;;;24.30;2.40;;;;;;5008113;28;34408;-79
2022/06/21 09:31:02;;;;;;;3.72;2.00;;;24.40;1.30;;;;;;5004387;28;34673;-79
2022/06/21 09:33:43;;;;;;;4.28;2.03;;;24.40;2.50;;;;;;5021322;28;35815;-76
2022/06/21 09:36:21;;;;;;;4.35;1.85;;;24.40;1.90;;;;;;5000840;28;34091;-78
2022/06/21 09:39:10;;;;;;;4.65;2.10;;;24.40;2.20;;;;;;5022603;28;34217;-79
2022/06/21 09:41:50;;;;;;;5.40;2.08;;;24.50;1.00;;;;;;5008898;28;34076;-78
2022/06/21 09:44:31;;;;;;;5.25;2.00;;;24.70;1.50;;;;;;5027031;28;35538;-79
2022/06/21 09:47:22;;;;;;;3.65;1.98;;;25.20;1.00;;;;;;5024062;28;34192;-80
2022/06/21 09:50:09;;;;;;;4.75;2.20;;;25.50;1.00;;;;;;5026980;28;34157;-78
2022/06/21 09:53:06;;;;;;;2.10;1.90;;;25.90;1.40;;;;;;5025832;28;34074;-78
2022/06/21 09:56:02;;;;;;;9.10;2.15;;;26.30;1.00;;;;;;5027312;28;36727;-79
2022/06/21 09:58:41;;;;;;;2.15;1.95;;;26.50;1.00;;;;;;4997050;28;34110;-81
2022/06/21 10:01:37;;;;;;;5.25;2.10;;;26.40;1.00;;;;;;5027639;28;34183;-80
2022/06/21 10:04:23;;;;;;;2.38;2.03;;;26.60;1.00;;;;;;5015386;28;34047;-79
2022/06/21 10:07:14;;;;;;;5.55;2.30;;;26.80;1.00;;;;;;5021305;28;35946;-79
2022/06/21 10:10:02;;;;;;;2.47;2.00;;;26.70;1.00;;;;;;5026000;28;34266;-79
2022/06/21 10:12:55;;;;;;;4.40;2.55;;;26.60;1.00;;;;;;5027788;28;34217;-79
2022/06/21 10:15:39;;;;;;;2.97;1.95;;;26.40;1.00;;;;;;5008037;28;34455;-80
2022/06/21 10:18:35;;;;;;;3.22;2.10;;;26.40;1.00;;;;;;5007756;28;36451;-80
2022/06/21 10:21:20;;;;;;;5.28;2.63;;;26.10;1.00;;;;;;5006739;28;34039;-78
2022/06/21 10:24:14;;;;;;;3.10;2.30;;;26.00;1.00;;;;;;5008970;28;34281;-78
2022/06/21 10:27:15;;;;;;;7.97;2.40;;;25.80;1.00;;;;;;5025889;28;34293;-79
2022/06/21 10:30:14;;;;;;;4.68;2.30;;;25.60;1.00;;;;;;5007655;28;35641;-80
2022/06/21 10:32:56;;;;;;;4.90;2.00;;;25.50;1.00;;;;;;4989093;28;34555;-78
2022/06/21 10:35:44;;;;;;;3.70;2.20;;;25.40;1.00;;;;;;5025558;28;34165;-81
2022/06/21 10:38:36;;;;;;;2.53;2.20;;;25.30;1.00;;;;;;5010234;28;34193;-78
2022/06/21 10:41:32;;;;;;;5.60;2.15;;;25.40;1.00;;;;;;5026097;28;35833;-76
2022/06/21 10:44:29;;;;;;;5.65;1.98;;;25.50;1.00;;;;;;4996770;28;34244;-80
2022/06/21 10:47:03;;;;;;;4.18;2.55;;;25.60;1.00;;;;;;5025612;28;34087;-79
2022/06/21 10:49:51;;;;;;;3.17;2.08;;;25.80;1.00;;;;;;5024720;28;34155;-79
2022/06/21 10:52:39;;;;;;;3.15;2.45;;;26.20;1.00;;;;;;5009668;28;36616;-80
2022/06/21 10:55:33;;;;;;;4.13;2.20;;;26.80;1.00;;;;;;5024386;28;34117;-79
2022/06/21 10:58:22;;;;;;;2.15;1.95;;;27.30;1.00;;;;;;5010449;28;35214;-77
2022/06/21 11:01:18;;;;;;;2.50;2.30;;;27.60;1.00;;;;;;5023824;28;34506;-79
2022/06/21 11:04:14;;;;;;;3.88;2.25;;;27.90;1.00;;;;;;5008058;28;35670;-80
2022/06/21 11:07:02;;;;;;;4.22;2.42;;;28.10;1.00;;;;;;5010212;28;34128;-80
2022/06/21 11:09:40;;;;;;;2.92;2.00;;;27.80;1.00;;;;;;5024917;28;34078;-79
2022/06/21 11:15:09;;;;;;;3.05;2.17;;;27.40;1.00;;;;;;4991381;28;34302;-78
2022/06/21 11:17:50;;;;;;;2.95;2.00;;;27.20;1.00;;;;;;5005049;28;34285;-79
2022/06/21 11:20:29;;;;;;;3.45;2.22;;;27.10;1.00;;;;;;5007735;28;34075;-80
2022/06/21 11:23:25;;;;;;;4.43;2.03;;;27.00;1.00;;;;;;5005568;28;34022;-80
2022/06/21 11:26:03;;;;;;;4.72;2.45;;;27.00;1.00;;;;;;5006235;28;36372;-77
2022/06/21 11:28:43;;;;;;;3.03;1.98;;;26.90;1.00;;;;;;5024489;28;34143;-79
2022/06/21 11:31:31;;;;;;;2.65;1.90;;;26.90;1.00;;;;;;5024998;28;34138;-78
2022/06/21 11:34:22;;;;;;;2.70;2.20;;;26.90;1.00;;;;;;5025292;28;34564;-79
2022/06/21 11:37:12;;;;;;;6.30;2.00;;;27.10;1.00;;;;;;5010829;28;35890;-80
2022/06/21 11:40:00;;;;;;;4.57;2.28;;;27.40;1.00;;;;;;4990902;28;34203;-79
2022/06/21 11:42:36;;;;;;;3.75;2.33;;;27.50;1.00;;;;;;5004540;28;34324;-79
2022/06/21 11:45:32;;;;;;;4.47;2.40;;;27.80;1.00;;;;;;4997238;28;34393;-79
2022/06/21 11:48:24;;;;;;;2.92;2.42;;;28.10;1.00;;;;;;5024712;28;36705;-77
2022/06/21 11:51:30;;;;;;;2.35;2.13;;;28.30;1.00;;;;;;5007784;28;34239;-78
2022/06/21 11:54:03;;;;;;;2.88;2.20;;;28.60;1.00;;;;;;4996775;28;34210;-79
2022/06/21 11:56:49;;;;;;;2.67;2.38;;;28.90;1.00;;;;;;5024858;28;34156;-77
2022/06/21 11:59:27;;;;;;;2.45;2.20;;;29.00;1.00;;;;;;5009561;28;36512;-78
2022/06/21 12:02:14;;;;;;;3.47;2.00;;;28.90;1.00;;;;;;5024183;28;34201;-78
2022/06/21 12:05:00;;;;;;;2.15;1.90;;;28.90;1.00;;;;;;5023132;28;34430;-78
2022/06/21 12:07:40;;;;;;;2.65;2.10;;;29.00;1.00;;;;;;5023599;28;34462;-79
2022/06/21 12:10:19;;;;;;;2.63;2.00;;;29.10;1.00;;;;;;5019116;28;34383;-78
2022/06/21 12:13:08;;;;;;;3.60;2.15;;;29.10;1.00;;;;;;5019572;28;34321;-79
2022/06/21 12:15:45;;;;;;;2.25;1.80;;;29.00;1.00;;;;;;5024697;28;34304;-81
2022/06/21 12:18:15;;;;;;;2.95;2.08;;;29.10;1.00;;;;;;5009919;28;34341;-79
2022/06/21 12:20:49;;;;;;;2.03;1.88;;;29.10;1.00;;;;;;5025072;28;35540;-79
2022/06/21 12:23:35;;;;;;;3.17;2.30;;;29.20;1.00;;;;;;5025231;28;34113;-78
2022/06/21 12:26:02;;;;;;;2.30;2.10;;;29.20;1.00;;;;;;5010337;28;34265;-79
2022/06/21 12:28:31;;;;;;;3.45;2.30;;;29.30;1.00;;;;;;5023426;28;34591;-82
2022/06/21 12:31:03;;;;;;;2.70;1.98;;;29.30;1.00;;;;;;5007002;28;35513;-76
2022/06/21 12:33:33;;;;;;;5.28;2.30;;;29.30;1.00;;;;;;5024438;28;34362;-77
2022/06/21 12:36:28;;;;;;;2.75;2.33;;;29.30;1.00;;;;;;5024208;28;34505;-77
2022/06/21 12:38:59;;;;;;;2.40;2.17;;;29.40;1.00;;;;;;5004788;28;34061;-77
2022/06/21 12:41:54;;;;;;;3.33;2.00;;;29.40;1.00;;;;;;5010146;28;36262;-78
2022/06/21 12:44:50;;;;;;;2.38;2.00;;;29.30;1.00;;;;;;5026727;28;34212;-79
2022/06/21 12:47:32;;;;;;;3.45;2.20;;;29.20;1.00;;;;;;5025856;28;34581;-79
2022/06/21 12:50:24;;;;;;;3.85;2.17;;;29.30;1.00;;;;;;5006977;28;34581;-79
2022/06/21 12:53:17;;;;;;;2.15;1.88;;;29.30;1.00;;;;;;4994394;28;35860;-77
2022/06/21 12:55:59;;;;;;;3.47;2.20;;;29.50;1.00;;;;;;5000250;28;34203;-79
2022/06/21 12:59:00;;;;;;;4.20;2.10;;;29.60;1.00;;;;;;5023395;28;34396;-81
2022/06/21 13:01:47;;;;;;;2.92;2.15;;;29.70;1.00;;;;;;5027539;28;34305;-80
2022/06/21 13:04:32;;;;;;;3.53;2.38;;;29.50;1.00;;;;;;5023036;28;34981;-76
2022/06/21 13:07:29;;;;;;;2.65;2.05;;;29.50;1.00;;;;;;5001513;28;34927;-77
2022/06/21 13:10:10;;;;;;;2.00;1.90;;;29.50;1.00;;;;;;4986120;28;34221;-75
2022/06/21 13:12:52;;;;;;;3.25;2.10;;;29.60;1.00;;;;;;5017869;28;34094;-78
2022/06/21 13:15:39;;;;;;;4.50;2.13;;;29.60;1.00;;;;;;4996815;28;35543;-78
2022/06/21 13:18:32;;;;;;;3.10;2.20;;;29.70;1.00;;;;;;5025509;28;34068;-79
2022/06/21 13:21:22;;;;;;;3.15;1.70;;;29.80;1.00;;;;;;5027699;28;34410;-79
2022/06/21 13:24:13;;;;;;;4.13;1.88;;;29.90;1.00;;;;;;4996559;28;34216;-78
2022/06/21 13:27:03;;;;;;;3.65;2.17;;;29.80;1.00;;;;;;5023360;28;35632;-79
2022/06/21 13:29:59;;;;;;;4.07;1.67;;;29.80;1.00;;;;;;5011010;28;34230;-80
2022/06/21 13:32:29;;;;;;;5.85;2.55;;;29.70;1.00;;;;;;5027467;28;34271;-80
2022/06/21 13:35:16;;;;;;;4.47;2.03;;;29.70;1.00;;;;;;5027879;28;34140;-78
2022/06/21 13:37:54;;;;;;;3.15;2.10;;;29.50;1.00;;;;;;5018258;28;35624;-76
2022/06/21 13:40:27;;;;;;;4.10;2.17;;;29.50;1.00;;;;;;5024318;28;34152;-79
2022/06/21 13:43:07;;;;;;;4.22;1.90;;;29.40;1.00;;;;;;5024320;28;34295;-79
2022/06/21 13:45:54;;;;;;;4.90;1.92;;;29.40;1.00;;;;;;5018546;28;34086;-77
2022/06/21 13:48:35;;;;;;;3.13;2.03;;;29.40;1.00;;;;;;5010215;28;35674;-79
2022/06/21 13:51:21;;;;;;;2.83;1.90;;;29.30;1.00;;;;;;5027321;28;34247;-78
2022/06/21 13:54:08;;;;;;;3.05;1.92;;;29.20;1.00;;;;;;5025223;28;35639;-80
2022/06/21 13:56:56;;;;;;;4.95;2.00;;;29.20;1.00;;;;;;5014308;28;34111;-78
2022/06/21 13:59:35;;;;;;;4.47;2.10;;;29.30;1.00;;;;;;5027924;28;34858;-78
2022/06/21 14:02:25;;;;;;;2.80;1.98;;;29.30;1.00;;;;;;5026031;28;34115;-79
2022/06/21 14:05:12;;;;;;;2.00;1.75;;;29.40;1.00;;;;;;5026438;28;34296;-79
2022/06/21 14:07:57;;;;;;;3.92;2.10;;;29.30;1.00;;;;;;5027602;28;34212;-77
2022/06/21 14:10:31;;;;;;;4.75;1.90;;;29.30;1.00;;;;;;5025968;28;36627;-79
2022/06/21 14:13:11;;;;;;;2.65;2.05;;;29.30;1.00;;;;;;5026427;28;34109;-79
2022/06/21 14:15:57;;;;;;;2.45;2.00;;;29.30;1.00;;;;;;5009940;28;34346;-80
2022/06/21 14:18:46;;;;;;;3.85;2.30;;;29.30;1.00;;;;;;5025904;28;34513;-80
2022/06/21 14:21:32;;;;;;;3.53;1.92;;;29.30;1.00;;;;;;5026742;28;36108;-78
2022/06/21 14:24:18;;;;;;;3.47;1.95;;;29.50;1.00;;;;;;5011098;28;34201;-80
2022/06/21 14:26:52;;;;;;;2.22;2.03;;;29.50;1.00;;;;;;5019911;28;34568;-79
2022/06/21 14:29:28;;;;;;;3.83;1.85;;;29.50;1.00;;;;;;5009072;28;34388;-78